sensor_id;sensor_type;location;lat;lon;timestamp;temperature;humidity
25504;DHT22;13410;52.114;5.718;2022-12-18T00:01:30;2.20;99.90
25504;DHT22;13410;52.114;5.718;2022-12-18T00:03:56;2.20;99.90
25504;DHT22;13410;52.114;5.718;2022-12-18T00:06:23;2.10;99.90
25504;DHT22;13410;52.114;5.718;2022-12-18T00:08:50;2.10;99.90
25504;DHT22;13410;52.114;5.718;2022-12-18T00:11:22;1.90;99.90
25504;DHT22;13410;52.114;5.718;2022-12-18T00:13:48;2.10;99.90
25504;DHT22;13410;52.114;5.718;2022-12-18T00:16:20;1.90;99.90
25504;DHT22;13410;52.114;5.718;2022-12-18T00:18:47;1.90;99.90
25504;DHT22;13410;52.114;5.718;2022-12-18T00:21:15;2.00;99.90
25504;DHT22;13410;52.114;5.718;2022-12-18T00:23:42;2.10;99.90
25504;DHT22;13410;52.114;5.718;2022-12-18T00:26:20;2.10;99.90
25504;DHT22;13410;52.114;5.718;2022-12-18T00:28:47;1.90;99.90
25504;DHT22;13410;52.114;5.718;2022-12-18T00:31:16;1.80;99.90
25504;DHT22;13410;52.114;5.718;2022-12-18T00:33:41;1.70;99.90
25504;DHT22;13410;52.114;5.718;2022-12-18T00:36:11;1.50;99.90
25504;DHT22;13410;52.114;5.718;2022-12-18T00:38:37;1.30;99.90
25504;DHT22;13410;52.114;5.718;2022-12-18T00:41:09;1.20;99.90
25504;DHT22;13410;52.114;5.718;2022-12-18T00:43:36;1.20;99.90
25504;DHT22;13410;52.114;5.718;2022-12-18T00:46:01;1.20;99.90
25504;DHT22;13410;52.114;5.718;2022-12-18T00:48:27;1.10;99.90
25504;DHT22;13410;52.114;5.718;2022-12-18T00:50:52;1.00;99.90
25504;DHT22;13410;52.114;5.718;2022-12-18T00:53:18;1.10;99.90
25504;DHT22;13410;52.114;5.718;2022-12-18T00:55:44;1.10;99.90
25504;DHT22;13410;52.114;5.718;2022-12-18T00:58:11;1.00;99.90
25504;DHT22;13410;52.114;5.718;2022-12-18T01:00:37;1.00;99.90
25504;DHT22;13410;52.114;5.718;2022-12-18T01:03:03;0.90;99.90
25504;DHT22;13410;52.114;5.718;2022-12-18T01:05:29;1.00;99.90
25504;DHT22;13410;52.114;5.718;2022-12-18T01:07:55;0.80;99.90
25504;DHT22;13410;52.114;5.718;2022-12-18T01:10:21;0.70;99.90
25504;DHT22;13410;52.114;5.718;2022-12-18T01:12:47;0.80;99.90
25504;DHT22;13410;52.114;5.718;2022-12-18T01:15:13;0.90;99.90
25504;DHT22;13410;52.114;5.718;2022-12-18T01:17:39;0.80;99.90
25504;DHT22;13410;52.114;5.718;2022-12-18T01:20:05;0.60;99.90
25504;DHT22;13410;52.114;5.718;2022-12-18T01:22:33;0.50;99.90
25504;DHT22;13410;52.114;5.718;2022-12-18T01:24:59;0.50;99.90
25504;DHT22;13410;52.114;5.718;2022-12-18T01:27:25;0.40;99.90
25504;DHT22;13410;52.114;5.718;2022-12-18T01:29:51;0.30;99.90
25504;DHT22;13410;52.114;5.718;2022-12-18T01:32:16;0.30;99.90
25504;DHT22;13410;52.114;5.718;2022-12-18T01:34:42;0.30;99.90
25504;DHT22;13410;52.114;5.718;2022-12-18T01:37:07;0.40;99.90
25504;DHT22;13410;52.114;5.718;2022-12-18T01:39:33;0.20;99.90
25504;DHT22;13410;52.114;5.718;2022-12-18T01:42:00;0.10;99.90
25504;DHT22;13410;52.114;5.718;2022-12-18T01:44:57;0.20;99.90
25504;DHT22;13410;52.114;5.718;2022-12-18T01:47:33;0.30;99.90
25504;DHT22;13410;52.114;5.718;2022-12-18T01:50:11;0.20;99.90
25504;DHT22;13410;52.114;5.718;2022-12-18T01:52:43;0.30;99.90
25504;DHT22;13410;52.114;5.718;2022-12-18T01:55:11;0.20;99.90
25504;DHT22;13410;52.114;5.718;2022-12-18T01:57:38;0.20;99.90
25504;DHT22;13410;52.114;5.718;2022-12-18T02:00:09;0.20;99.90
25504;DHT22;13410;52.114;5.718;2022-12-18T02:02:35;0.20;99.90
25504;DHT22;13410;52.114;5.718;2022-12-18T02:05:02;0.20;99.90
25504;DHT22;13410;52.114;5.718;2022-12-18T02:07:47;0.30;99.90
25504;DHT22;13410;52.114;5.718;2022-12-18T02:13:24;0.40;99.90
25504;DHT22;13410;52.114;5.718;2022-12-18T02:18:32;0.30;99.90
25504;DHT22;13410;52.114;5.718;2022-12-18T02:26:42;-0.10;99.90
25504;DHT22;13410;52.114;5.718;2022-12-18T02:29:13;0.00;99.90
25504;DHT22;13410;52.114;5.718;2022-12-18T02:31:45;-0.10;99.90
25504;DHT22;13410;52.114;5.718;2022-12-18T02:34:12;-0.10;99.90
25504;DHT22;13410;52.114;5.718;2022-12-18T02:36:40;0.10;99.90
25504;DHT22;13410;52.114;5.718;2022-12-18T02:39:08;0.00;99.90
25504;DHT22;13410;52.114;5.718;2022-12-18T02:41:36;0.00;99.90
25504;DHT22;13410;52.114;5.718;2022-12-18T02:44:08;-0.10;99.90
25504;DHT22;13410;52.114;5.718;2022-12-18T02:46:43;-0.10;99.90
25504;DHT22;13410;52.114;5.718;2022-12-18T03:00:26;-0.20;99.90
25504;DHT22;13410;52.114;5.718;2022-12-18T03:03:03;-0.20;99.90
25504;DHT22;13410;52.114;5.718;2022-12-18T03:05:43;-0.10;99.90
25504;DHT22;13410;52.114;5.718;2022-12-18T03:08:15;0.00;99.90
25504;DHT22;13410;52.114;5.718;2022-12-18T03:10:49;-0.10;99.90
25504;DHT22;13410;52.114;5.718;2022-12-18T03:13:23;-0.10;99.90
25504;DHT22;13410;52.114;5.718;2022-12-18T03:15:55;-0.30;99.90
25504;DHT22;13410;52.114;5.718;2022-12-18T03:18:46;-0.10;99.90
25504;DHT22;13410;52.114;5.718;2022-12-18T03:21:13;-0.30;99.90
25504;DHT22;13410;52.114;5.718;2022-12-18T03:23:42;-0.30;99.90
25504;DHT22;13410;52.114;5.718;2022-12-18T03:26:13;-0.50;99.90
25504;DHT22;13410;52.114;5.718;2022-12-18T03:28:44;-0.70;99.90
25504;DHT22;13410;52.114;5.718;2022-12-18T03:31:12;-0.50;99.90
25504;DHT22;13410;52.114;5.718;2022-12-18T03:33:57;-0.60;99.90
25504;DHT22;13410;52.114;5.718;2022-12-18T03:36:24;-0.50;99.90
25504;DHT22;13410;52.114;5.718;2022-12-18T03:38:50;-0.30;99.90
25504;DHT22;13410;52.114;5.718;2022-12-18T03:49:30;-0.30;99.90
25504;DHT22;13410;52.114;5.718;2022-12-18T03:52:09;-0.30;99.90
25504;DHT22;13410;52.114;5.718;2022-12-18T03:54:37;-0.30;99.90
25504;DHT22;13410;52.114;5.718;2022-12-18T03:57:13;-0.40;99.90
25504;DHT22;13410;52.114;5.718;2022-12-18T03:59:40;-0.50;99.90
25504;DHT22;13410;52.114;5.718;2022-12-18T04:02:07;-0.50;99.90
25504;DHT22;13410;52.114;5.718;2022-12-18T04:04:35;-0.50;99.90
25504;DHT22;13410;52.114;5.718;2022-12-18T04:07:03;-0.50;99.90
25504;DHT22;13410;52.114;5.718;2022-12-18T04:09:30;-0.50;99.90
25504;DHT22;13410;52.114;5.718;2022-12-18T04:11:57;-0.60;99.90
25504;DHT22;13410;52.114;5.718;2022-12-18T04:14:24;-0.60;99.90
25504;DHT22;13410;52.114;5.718;2022-12-18T04:16:49;-0.40;99.90
25504;DHT22;13410;52.114;5.718;2022-12-18T04:19:16;-0.50;99.90
25504;DHT22;13410;52.114;5.718;2022-12-18T04:21:42;-0.50;99.90
25504;DHT22;13410;52.114;5.718;2022-12-18T04:24:07;-0.50;99.90
25504;DHT22;13410;52.114;5.718;2022-12-18T04:26:33;-0.50;99.90
25504;DHT22;13410;52.114;5.718;2022-12-18T04:28:59;-0.60;99.90
25504;DHT22;13410;52.114;5.718;2022-12-18T04:31:25;-0.70;99.90
25504;DHT22;13410;52.114;5.718;2022-12-18T04:33:51;-0.80;99.90
25504;DHT22;13410;52.114;5.718;2022-12-18T04:36:16;-0.80;99.90
25504;DHT22;13410;52.114;5.718;2022-12-18T04:38:42;-0.70;99.90
25504;DHT22;13410;52.114;5.718;2022-12-18T04:41:07;-0.70;99.90
25504;DHT22;13410;52.114;5.718;2022-12-18T04:43:33;-0.60;99.90
25504;DHT22;13410;52.114;5.718;2022-12-18T04:46:06;-0.70;99.90
25504;DHT22;13410;52.114;5.718;2022-12-18T04:48:32;-0.80;99.90
25504;DHT22;13410;52.114;5.718;2022-12-18T04:50:58;-0.70;99.90
25504;DHT22;13410;52.114;5.718;2022-12-18T04:53:24;-0.60;99.90
25504;DHT22;13410;52.114;5.718;2022-12-18T04:56:01;-0.60;99.90
25504;DHT22;13410;52.114;5.718;2022-12-18T04:58:27;-0.70;99.90
25504;DHT22;13410;52.114;5.718;2022-12-18T05:00:52;-0.70;99.90
25504;DHT22;13410;52.114;5.718;2022-12-18T05:03:18;-0.80;99.90
25504;DHT22;13410;52.114;5.718;2022-12-18T05:05:43;-0.70;99.90
25504;DHT22;13410;52.114;5.718;2022-12-18T05:08:09;-0.90;99.90
25504;DHT22;13410;52.114;5.718;2022-12-18T05:10:34;-0.80;99.90
25504;DHT22;13410;52.114;5.718;2022-12-18T05:13:00;-0.60;99.90
25504;DHT22;13410;52.114;5.718;2022-12-18T05:15:30;-0.60;99.90
25504;DHT22;13410;52.114;5.718;2022-12-18T05:17:58;-0.50;99.90
25504;DHT22;13410;52.114;5.718;2022-12-18T05:20:24;-0.50;99.90
25504;DHT22;13410;52.114;5.718;2022-12-18T05:22:50;-0.40;99.90
25504;DHT22;13410;52.114;5.718;2022-12-18T05:25:16;-0.50;99.90
25504;DHT22;13410;52.114;5.718;2022-12-18T05:27:42;-0.50;99.90
25504;DHT22;13410;52.114;5.718;2022-12-18T05:30:08;-0.30;99.90
25504;DHT22;13410;52.114;5.718;2022-12-18T05:32:34;-0.40;99.90
25504;DHT22;13410;52.114;5.718;2022-12-18T05:35:00;-0.40;99.90
25504;DHT22;13410;52.114;5.718;2022-12-18T05:37:25;-0.50;99.90
25504;DHT22;13410;52.114;5.718;2022-12-18T05:39:51;-0.50;99.90
25504;DHT22;13410;52.114;5.718;2022-12-18T05:42:17;-0.50;99.90
25504;DHT22;13410;52.114;5.718;2022-12-18T05:44:43;-0.50;99.90
25504;DHT22;13410;52.114;5.718;2022-12-18T05:47:09;-0.50;99.90
25504;DHT22;13410;52.114;5.718;2022-12-18T05:49:34;-0.60;99.90
25504;DHT22;13410;52.114;5.718;2022-12-18T05:52:01;-0.60;99.90
25504;DHT22;13410;52.114;5.718;2022-12-18T05:54:27;-0.70;99.90
25504;DHT22;13410;52.114;5.718;2022-12-18T05:56:53;-0.90;99.90
25504;DHT22;13410;52.114;5.718;2022-12-18T05:59:19;-0.80;99.90
25504;DHT22;13410;52.114;5.718;2022-12-18T06:01:45;-0.70;99.90
25504;DHT22;13410;52.114;5.718;2022-12-18T06:04:11;-0.90;99.90
25504;DHT22;13410;52.114;5.718;2022-12-18T06:06:37;-0.90;99.90
25504;DHT22;13410;52.114;5.718;2022-12-18T06:09:03;-0.80;99.90
25504;DHT22;13410;52.114;5.718;2022-12-18T06:11:34;-0.80;99.90
25504;DHT22;13410;52.114;5.718;2022-12-18T06:14:00;-0.90;99.90
25504;DHT22;13410;52.114;5.718;2022-12-18T06:16:27;-0.80;99.90
25504;DHT22;13410;52.114;5.718;2022-12-18T06:19:00;-0.90;99.90
25504;DHT22;13410;52.114;5.718;2022-12-18T06:21:27;-0.80;99.90
25504;DHT22;13410;52.114;5.718;2022-12-18T06:23:53;-0.80;99.90
25504;DHT22;13410;52.114;5.718;2022-12-18T06:26:18;-0.80;99.90
25504;DHT22;13410;52.114;5.718;2022-12-18T06:28:44;-0.70;99.90
25504;DHT22;13410;52.114;5.718;2022-12-18T06:31:10;-0.70;99.90
25504;DHT22;13410;52.114;5.718;2022-12-18T06:33:36;-0.60;99.90
25504;DHT22;13410;52.114;5.718;2022-12-18T06:36:05;-0.80;99.90
25504;DHT22;13410;52.114;5.718;2022-12-18T06:38:32;-0.60;99.90
25504;DHT22;13410;52.114;5.718;2022-12-18T06:40:59;-0.70;99.90
25504;DHT22;13410;52.114;5.718;2022-12-18T06:43:24;-0.50;99.90
25504;DHT22;13410;52.114;5.718;2022-12-18T06:45:50;-0.80;99.90
25504;DHT22;13410;52.114;5.718;2022-12-18T06:48:21;-0.80;99.90
25504;DHT22;13410;52.114;5.718;2022-12-18T06:50:47;-0.80;99.90
25504;DHT22;13410;52.114;5.718;2022-12-18T06:53:12;-0.70;99.90
25504;DHT22;13410;52.114;5.718;2022-12-18T06:55:39;-0.50;99.90
25504;DHT22;13410;52.114;5.718;2022-12-18T06:58:04;-0.50;99.90
25504;DHT22;13410;52.114;5.718;2022-12-18T07:00:30;-0.60;99.90
25504;DHT22;13410;52.114;5.718;2022-12-18T07:02:55;-0.70;99.90
25504;DHT22;13410;52.114;5.718;2022-12-18T07:05:22;-0.60;99.90
25504;DHT22;13410;52.114;5.718;2022-12-18T07:07:48;-0.70;99.90
25504;DHT22;13410;52.114;5.718;2022-12-18T07:10:13;-0.70;99.90
25504;DHT22;13410;52.114;5.718;2022-12-18T07:12:39;-0.80;99.90
25504;DHT22;13410;52.114;5.718;2022-12-18T07:15:05;-0.80;99.90
25504;DHT22;13410;52.114;5.718;2022-12-18T07:17:32;-0.70;99.90
25504;DHT22;13410;52.114;5.718;2022-12-18T07:19:57;-0.80;99.90
25504;DHT22;13410;52.114;5.718;2022-12-18T07:22:25;-0.70;99.90
25504;DHT22;13410;52.114;5.718;2022-12-18T07:24:50;-0.50;99.90
25504;DHT22;13410;52.114;5.718;2022-12-18T07:27:16;-0.50;99.90
25504;DHT22;13410;52.114;5.718;2022-12-18T07:29:41;-0.50;99.90
25504;DHT22;13410;52.114;5.718;2022-12-18T07:32:07;-0.50;99.90
25504;DHT22;13410;52.114;5.718;2022-12-18T07:34:33;-0.50;99.90
25504;DHT22;13410;52.114;5.718;2022-12-18T07:36:59;-0.50;99.90
25504;DHT22;13410;52.114;5.718;2022-12-18T07:39:24;-0.60;99.90
25504;DHT22;13410;52.114;5.718;2022-12-18T07:41:50;-0.60;99.90
25504;DHT22;13410;52.114;5.718;2022-12-18T07:44:34;-0.70;99.90
25504;DHT22;13410;52.114;5.718;2022-12-18T07:47:00;-0.70;99.90
25504;DHT22;13410;52.114;5.718;2022-12-18T07:49:26;-0.60;99.90
25504;DHT22;13410;52.114;5.718;2022-12-18T07:51:56;-0.70;99.90
25504;DHT22;13410;52.114;5.718;2022-12-18T07:54:23;-0.70;99.90
25504;DHT22;13410;52.114;5.718;2022-12-18T07:56:49;-0.60;99.90
25504;DHT22;13410;52.114;5.718;2022-12-18T07:59:14;-0.60;99.90
25504;DHT22;13410;52.114;5.718;2022-12-18T08:01:40;-0.50;99.90
25504;DHT22;13410;52.114;5.718;2022-12-18T08:04:05;-0.50;99.90
25504;DHT22;13410;52.114;5.718;2022-12-18T08:06:31;-0.50;99.90
25504;DHT22;13410;52.114;5.718;2022-12-18T08:08:57;-0.50;99.90
25504;DHT22;13410;52.114;5.718;2022-12-18T08:11:25;-0.40;99.90
25504;DHT22;13410;52.114;5.718;2022-12-18T08:13:51;-0.30;99.90
25504;DHT22;13410;52.114;5.718;2022-12-18T08:16:17;-0.10;99.90
25504;DHT22;13410;52.114;5.718;2022-12-18T08:18:43;-0.20;99.90
25504;DHT22;13410;52.114;5.718;2022-12-18T08:21:11;-0.20;99.90
25504;DHT22;13410;52.114;5.718;2022-12-18T08:23:37;-0.10;99.90
25504;DHT22;13410;52.114;5.718;2022-12-18T08:26:03;-0.30;99.90
25504;DHT22;13410;52.114;5.718;2022-12-18T08:28:29;-0.20;99.90
25504;DHT22;13410;52.114;5.718;2022-12-18T08:30:54;-0.20;99.90
25504;DHT22;13410;52.114;5.718;2022-12-18T08:33:20;-0.20;99.90
25504;DHT22;13410;52.114;5.718;2022-12-18T08:35:46;-0.20;99.90
25504;DHT22;13410;52.114;5.718;2022-12-18T08:38:11;-0.10;99.90
25504;DHT22;13410;52.114;5.718;2022-12-18T08:40:37;0.00;99.90
25504;DHT22;13410;52.114;5.718;2022-12-18T08:43:02;0.00;99.90
25504;DHT22;13410;52.114;5.718;2022-12-18T08:45:46;0.20;99.90
25504;DHT22;13410;52.114;5.718;2022-12-18T08:48:12;0.30;99.90
25504;DHT22;13410;52.114;5.718;2022-12-18T08:50:37;0.40;99.90
25504;DHT22;13410;52.114;5.718;2022-12-18T08:53:03;0.30;99.90
25504;DHT22;13410;52.114;5.718;2022-12-18T08:55:29;0.40;99.90
25504;DHT22;13410;52.114;5.718;2022-12-18T08:57:54;0.40;99.90
25504;DHT22;13410;52.114;5.718;2022-12-18T09:00:20;0.40;99.90
25504;DHT22;13410;52.114;5.718;2022-12-18T09:02:45;0.50;99.90
25504;DHT22;13410;52.114;5.718;2022-12-18T09:05:11;0.50;99.90
25504;DHT22;13410;52.114;5.718;2022-12-18T09:07:37;0.60;99.90
25504;DHT22;13410;52.114;5.718;2022-12-18T09:10:03;0.70;99.90
25504;DHT22;13410;52.114;5.718;2022-12-18T09:12:29;0.70;99.90
25504;DHT22;13410;52.114;5.718;2022-12-18T09:14:54;0.80;99.90
25504;DHT22;13410;52.114;5.718;2022-12-18T09:17:21;0.80;99.90
25504;DHT22;13410;52.114;5.718;2022-12-18T09:19:48;0.90;99.90
25504;DHT22;13410;52.114;5.718;2022-12-18T09:22:14;1.00;99.90
25504;DHT22;13410;52.114;5.718;2022-12-18T09:24:40;1.10;99.90
25504;DHT22;13410;52.114;5.718;2022-12-18T09:27:05;1.10;99.90
25504;DHT22;13410;52.114;5.718;2022-12-18T09:29:32;1.10;99.90
25504;DHT22;13410;52.114;5.718;2022-12-18T09:31:57;1.20;99.90
25504;DHT22;13410;52.114;5.718;2022-12-18T09:34:23;1.20;99.90
25504;DHT22;13410;52.114;5.718;2022-12-18T09:36:49;1.30;99.90
25504;DHT22;13410;52.114;5.718;2022-12-18T09:39:15;1.40;99.90
25504;DHT22;13410;52.114;5.718;2022-12-18T09:41:51;1.70;99.90
25504;DHT22;13410;52.114;5.718;2022-12-18T09:44:29;1.80;99.90
25504;DHT22;13410;52.114;5.718;2022-12-18T09:50:01;1.70;99.90
25504;DHT22;13410;52.114;5.718;2022-12-18T09:52:33;1.70;99.90
25504;DHT22;13410;52.114;5.718;2022-12-18T09:55:03;1.80;99.90
25504;DHT22;13410;52.114;5.718;2022-12-18T09:57:32;1.80;99.90
25504;DHT22;13410;52.114;5.718;2022-12-18T10:00:06;1.70;99.90
25504;DHT22;13410;52.114;5.718;2022-12-18T10:02:34;1.90;99.90
25504;DHT22;13410;52.114;5.718;2022-12-18T10:05:10;2.10;99.90
25504;DHT22;13410;52.114;5.718;2022-12-18T10:07:42;2.10;99.90
25504;DHT22;13410;52.114;5.718;2022-12-18T10:10:51;2.00;99.90
25504;DHT22;13410;52.114;5.718;2022-12-18T10:16:30;2.10;99.90
25504;DHT22;13410;52.114;5.718;2022-12-18T10:19:20;2.20;99.90
25504;DHT22;13410;52.114;5.718;2022-12-18T10:22:03;2.10;99.90
25504;DHT22;13410;52.114;5.718;2022-12-18T10:24:39;2.20;99.90
25504;DHT22;13410;52.114;5.718;2022-12-18T10:27:15;2.20;99.90
25504;DHT22;13410;52.114;5.718;2022-12-18T10:29:45;2.20;99.90
25504;DHT22;13410;52.114;5.718;2022-12-18T10:32:15;2.30;99.90
25504;DHT22;13410;52.114;5.718;2022-12-18T10:34:46;2.50;99.90
25504;DHT22;13410;52.114;5.718;2022-12-18T10:37:20;2.60;99.90
25504;DHT22;13410;52.114;5.718;2022-12-18T10:42:34;2.80;99.90
25504;DHT22;13410;52.114;5.718;2022-12-18T10:45:15;2.90;99.90
25504;DHT22;13410;52.114;5.718;2022-12-18T10:47:50;2.90;99.90
25504;DHT22;13410;52.114;5.718;2022-12-18T10:53:01;3.00;99.90
25504;DHT22;13410;52.114;5.718;2022-12-18T10:55:37;2.70;99.90
25504;DHT22;13410;52.114;5.718;2022-12-18T10:58:30;2.90;99.90
25504;DHT22;13410;52.114;5.718;2022-12-18T11:01:10;3.10;99.90
25504;DHT22;13410;52.114;5.718;2022-12-18T11:04:36;3.30;99.90
25504;DHT22;13410;52.114;5.718;2022-12-18T11:06:34;3.40;99.90
25504;DHT22;13410;52.114;5.718;2022-12-18T11:09:24;3.50;99.90
25504;DHT22;13410;52.114;5.718;2022-12-18T11:11:52;3.50;99.90
25504;DHT22;13410;52.114;5.718;2022-12-18T11:14:27;3.50;99.90
25504;DHT22;13410;52.114;5.718;2022-12-18T11:16:57;3.70;99.90
25504;DHT22;13410;52.114;5.718;2022-12-18T11:19:33;3.70;99.90
25504;DHT22;13410;52.114;5.718;2022-12-18T11:22:00;3.50;99.90
25504;DHT22;13410;52.114;5.718;2022-12-18T11:24:33;3.60;99.90
25504;DHT22;13410;52.114;5.718;2022-12-18T11:27:04;3.70;99.90
25504;DHT22;13410;52.114;5.718;2022-12-18T11:29:37;3.70;99.90
25504;DHT22;13410;52.114;5.718;2022-12-18T11:34:47;3.40;99.90
25504;DHT22;13410;52.114;5.718;2022-12-18T11:37:15;3.50;99.90
25504;DHT22;13410;52.114;5.718;2022-12-18T11:42:54;3.70;99.90
25504;DHT22;13410;52.114;5.718;2022-12-18T11:45:34;3.80;99.90
25504;DHT22;13410;52.114;5.718;2022-12-18T11:48:22;3.70;99.90
25504;DHT22;13410;52.114;5.718;2022-12-18T11:50:58;3.80;99.90
25504;DHT22;13410;52.114;5.718;2022-12-18T11:53:26;3.70;99.90
25504;DHT22;13410;52.114;5.718;2022-12-18T11:59:17;3.80;99.90
25504;DHT22;13410;52.114;5.718;2022-12-18T12:01:50;3.90;99.90
25504;DHT22;13410;52.114;5.718;2022-12-18T12:10:12;4.30;99.90
25504;DHT22;13410;52.114;5.718;2022-12-18T12:13:04;4.40;99.90
25504;DHT22;13410;52.114;5.718;2022-12-18T12:16:00;4.40;99.90
25504;DHT22;13410;52.114;5.718;2022-12-18T12:19:11;4.20;99.90
25504;DHT22;13410;52.114;5.718;2022-12-18T12:21:43;4.20;99.90
25504;DHT22;13410;52.114;5.718;2022-12-18T12:28:09;4.00;99.90
25504;DHT22;13410;52.114;5.718;2022-12-18T12:38:53;4.00;99.90
25504;DHT22;13410;52.114;5.718;2022-12-18T12:41:25;4.20;99.90
25504;DHT22;13410;52.114;5.718;2022-12-18T12:44:20;4.20;99.90
25504;DHT22;13410;52.114;5.718;2022-12-18T12:46:47;4.30;99.90
25504;DHT22;13410;52.114;5.718;2022-12-18T12:49:26;4.30;99.90
25504;DHT22;13410;52.114;5.718;2022-12-18T12:52:16;4.40;99.90
25504;DHT22;13410;52.114;5.718;2022-12-18T12:54:43;4.40;99.90
25504;DHT22;13410;52.114;5.718;2022-12-18T13:02:22;4.30;99.90
25504;DHT22;13410;52.114;5.718;2022-12-18T13:07:49;4.40;99.90
25504;DHT22;13410;52.114;5.718;2022-12-18T13:13:13;4.50;99.90
25504;DHT22;13410;52.114;5.718;2022-12-18T13:15:45;4.60;99.90
25504;DHT22;13410;52.114;5.718;2022-12-18T13:20:49;4.60;99.90
25504;DHT22;13410;52.114;5.718;2022-12-18T13:23:31;4.50;99.90
25504;DHT22;13410;52.114;5.718;2022-12-18T13:34:23;4.60;99.90
25504;DHT22;13410;52.114;5.718;2022-12-18T13:36:49;4.70;99.90
25504;DHT22;13410;52.114;5.718;2022-12-18T13:41:45;4.70;99.90
25504;DHT22;13410;52.114;5.718;2022-12-18T13:44:32;4.80;99.90
25504;DHT22;13410;52.114;5.718;2022-12-18T13:46:59;4.70;99.90
25504;DHT22;13410;52.114;5.718;2022-12-18T13:49:37;4.60;99.90
25504;DHT22;13410;52.114;5.718;2022-12-18T13:52:19;4.50;99.90
25504;DHT22;13410;52.114;5.718;2022-12-18T13:54:52;4.40;99.90
25504;DHT22;13410;52.114;5.718;2022-12-18T13:57:36;4.50;99.90
25504;DHT22;13410;52.114;5.718;2022-12-18T14:02:48;4.60;99.90
25504;DHT22;13410;52.114;5.718;2022-12-18T14:05:29;4.60;99.90
25504;DHT22;13410;52.114;5.718;2022-12-18T14:08:00;4.50;99.90
25504;DHT22;13410;52.114;5.718;2022-12-18T14:10:27;4.50;99.90
25504;DHT22;13410;52.114;5.718;2022-12-18T14:12:53;4.40;99.90
25504;DHT22;13410;52.114;5.718;2022-12-18T14:17:58;4.50;99.90
25504;DHT22;13410;52.114;5.718;2022-12-18T14:20:29;4.40;99.90
25504;DHT22;13410;52.114;5.718;2022-12-18T14:22:55;4.40;99.90
25504;DHT22;13410;52.114;5.718;2022-12-18T14:25:25;4.40;99.90
25504;DHT22;13410;52.114;5.718;2022-12-18T14:30:55;4.40;99.90
25504;DHT22;13410;52.114;5.718;2022-12-18T14:33:24;4.50;99.90
25504;DHT22;13410;52.114;5.718;2022-12-18T14:36:04;4.60;99.90
25504;DHT22;13410;52.114;5.718;2022-12-18T14:38:32;4.70;99.90
25504;DHT22;13410;52.114;5.718;2022-12-18T14:41:03;4.70;99.90
25504;DHT22;13410;52.114;5.718;2022-12-18T14:43:34;4.70;99.90
25504;DHT22;13410;52.114;5.718;2022-12-18T14:46:00;4.60;99.90
25504;DHT22;13410;52.114;5.718;2022-12-18T14:48:37;4.30;99.90
25504;DHT22;13410;52.114;5.718;2022-12-18T14:53:34;4.00;99.90
25504;DHT22;13410;52.114;5.718;2022-12-18T14:56:02;4.10;99.90
25504;DHT22;13410;52.114;5.718;2022-12-18T14:58:28;4.20;99.90
25504;DHT22;13410;52.114;5.718;2022-12-18T15:00:54;4.30;99.90
25504;DHT22;13410;52.114;5.718;2022-12-18T15:03:20;4.40;99.90
25504;DHT22;13410;52.114;5.718;2022-12-18T15:05:47;4.40;99.90
25504;DHT22;13410;52.114;5.718;2022-12-18T15:08:45;4.50;99.90
25504;DHT22;13410;52.114;5.718;2022-12-18T15:11:35;4.60;99.90
25504;DHT22;13410;52.114;5.718;2022-12-18T15:14:21;4.40;99.90
25504;DHT22;13410;52.114;5.718;2022-12-18T15:16:52;4.20;99.90
25504;DHT22;13410;52.114;5.718;2022-12-18T15:19:20;4.30;99.90
25504;DHT22;13410;52.114;5.718;2022-12-18T15:21:46;4.30;99.90
25504;DHT22;13410;52.114;5.718;2022-12-18T15:24:18;4.30;99.90
25504;DHT22;13410;52.114;5.718;2022-12-18T15:26:44;4.40;99.90
25504;DHT22;13410;52.114;5.718;2022-12-18T15:29:22;4.30;99.90
25504;DHT22;13410;52.114;5.718;2022-12-18T15:32:00;4.20;99.90
25504;DHT22;13410;52.114;5.718;2022-12-18T15:34:26;4.40;99.90
25504;DHT22;13410;52.114;5.718;2022-12-18T15:36:52;4.40;99.90
25504;DHT22;13410;52.114;5.718;2022-12-18T15:39:18;4.20;99.90
25504;DHT22;13410;52.114;5.718;2022-12-18T15:41:44;4.30;99.90
25504;DHT22;13410;52.114;5.718;2022-12-18T15:44:29;4.50;99.90
25504;DHT22;13410;52.114;5.718;2022-12-18T15:46:58;4.40;99.90
25504;DHT22;13410;52.114;5.718;2022-12-18T15:49:24;4.00;99.90
25504;DHT22;13410;52.114;5.718;2022-12-18T15:51:53;4.00;99.90
25504;DHT22;13410;52.114;5.718;2022-12-18T15:54:20;4.20;99.90
25504;DHT22;13410;52.114;5.718;2022-12-18T15:57:24;4.20;99.90
25504;DHT22;13410;52.114;5.718;2022-12-18T15:59:52;4.40;99.90
25504;DHT22;13410;52.114;5.718;2022-12-18T16:02:19;4.40;99.90
25504;DHT22;13410;52.114;5.718;2022-12-18T16:04:45;4.40;99.90
25504;DHT22;13410;52.114;5.718;2022-12-18T16:07:11;4.60;99.90
25504;DHT22;13410;52.114;5.718;2022-12-18T16:09:37;4.60;99.90
25504;DHT22;13410;52.114;5.718;2022-12-18T16:12:04;4.50;99.90
25504;DHT22;13410;52.114;5.718;2022-12-18T16:14:31;4.40;99.90
25504;DHT22;13410;52.114;5.718;2022-12-18T16:17:00;4.20;99.90
25504;DHT22;13410;52.114;5.718;2022-12-18T16:19:26;4.10;99.90
25504;DHT22;13410;52.114;5.718;2022-12-18T16:21:54;4.00;99.90
25504;DHT22;13410;52.114;5.718;2022-12-18T16:24:23;4.10;99.90
25504;DHT22;13410;52.114;5.718;2022-12-18T16:26:50;4.40;99.90
25504;DHT22;13410;52.114;5.718;2022-12-18T16:29:23;4.30;99.90
25504;DHT22;13410;52.114;5.718;2022-12-18T16:31:59;4.20;99.90
25504;DHT22;13410;52.114;5.718;2022-12-18T16:34:27;4.30;99.90
25504;DHT22;13410;52.114;5.718;2022-12-18T16:36:56;4.40;99.90
25504;DHT22;13410;52.114;5.718;2022-12-18T16:39:22;4.30;99.90
25504;DHT22;13410;52.114;5.718;2022-12-18T16:41:48;4.30;99.90
25504;DHT22;13410;52.114;5.718;2022-12-18T16:44:14;4.10;99.90
25504;DHT22;13410;52.114;5.718;2022-12-18T16:46:40;4.10;99.90
25504;DHT22;13410;52.114;5.718;2022-12-18T16:49:09;4.30;99.90
25504;DHT22;13410;52.114;5.718;2022-12-18T16:51:35;4.30;99.90
25504;DHT22;13410;52.114;5.718;2022-12-18T16:54:01;4.20;99.90
25504;DHT22;13410;52.114;5.718;2022-12-18T16:56:26;4.10;99.90
25504;DHT22;13410;52.114;5.718;2022-12-18T16:58:57;4.00;99.90
25504;DHT22;13410;52.114;5.718;2022-12-18T17:01:23;3.90;99.90
25504;DHT22;13410;52.114;5.718;2022-12-18T17:06:19;3.80;99.90
25504;DHT22;13410;52.114;5.718;2022-12-18T17:08:45;3.80;99.90
25504;DHT22;13410;52.114;5.718;2022-12-18T17:11:10;4.00;99.90
25504;DHT22;13410;52.114;5.718;2022-12-18T17:13:36;3.90;99.90
25504;DHT22;13410;52.114;5.718;2022-12-18T17:16:06;3.80;99.90
25504;DHT22;13410;52.114;5.718;2022-12-18T17:18:33;3.90;99.90
25504;DHT22;13410;52.114;5.718;2022-12-18T17:21:04;4.00;99.90
25504;DHT22;13410;52.114;5.718;2022-12-18T17:23:34;3.90;99.90
25504;DHT22;13410;52.114;5.718;2022-12-18T17:26:00;3.90;99.90
25504;DHT22;13410;52.114;5.718;2022-12-18T17:28:26;4.20;99.90
25504;DHT22;13410;52.114;5.718;2022-12-18T17:30:53;4.20;99.90
25504;DHT22;13410;52.114;5.718;2022-12-18T17:33:19;4.10;99.90
25504;DHT22;13410;52.114;5.718;2022-12-18T17:35:45;4.20;99.90
25504;DHT22;13410;52.114;5.718;2022-12-18T17:38:11;4.20;99.90
25504;DHT22;13410;52.114;5.718;2022-12-18T17:40:37;4.20;99.90
25504;DHT22;13410;52.114;5.718;2022-12-18T17:43:05;4.40;99.90